sensor_id;sensor_type;location;lat;lon;timestamp;P1;durP1;ratioP1;P2;durP2;ratioP2
842;SDS011;407;48.884;9.126;2023-07-29T00:02:17;5.30;;;1.30;;
842;SDS011;407;48.884;9.126;2023-07-29T00:04:43;4.70;;;1.30;;
842;SDS011;407;48.884;9.126;2023-07-29T00:07:08;6.77;;;1.40;;
842;SDS011;407;48.884;9.126;2023-07-29T00:09:34;5.70;;;1.30;;
842;SDS011;407;48.884;9.126;2023-07-29T00:11:59;4.85;;;1.40;;
842;SDS011;407;48.884;9.126;2023-07-29T00:14:25;5.30;;;1.50;;
842;SDS011;407;48.884;9.126;2023-07-29T00:16:50;4.80;;;1.27;;
842;SDS011;407;48.884;9.126;2023-07-29T00:19:16;4.53;;;1.63;;
842;SDS011;407;48.884;9.126;2023-07-29T00:21:41;4.80;;;1.50;;
842;SDS011;407;48.884;9.126;2023-07-29T00:24:07;4.77;;;1.30;;
842;SDS011;407;48.884;9.126;2023-07-29T00:26:32;4.50;;;1.20;;
842;SDS011;407;48.884;9.126;2023-07-29T00:28:58;4.23;;;1.00;;
842;SDS011;407;48.884;9.126;2023-07-29T00:31:23;5.30;;;1.33;;
842;SDS011;407;48.884;9.126;2023-07-29T00:33:49;5.00;;;1.48;;
842;SDS011;407;48.884;9.126;2023-07-29T00:36:15;4.90;;;1.52;;
842;SDS011;407;48.884;9.126;2023-07-29T00:38:40;5.30;;;1.90;;
842;SDS011;407;48.884;9.126;2023-07-29T00:41:06;4.60;;;1.30;;
842;SDS011;407;48.884;9.126;2023-07-29T00:43:32;7.30;;;1.35;;
842;SDS011;407;48.884;9.126;2023-07-29T00:45:59;5.53;;;1.40;;
842;SDS011;407;48.884;9.126;2023-07-29T00:48:25;5.82;;;1.58;;
842;SDS011;407;48.884;9.126;2023-07-29T00:50:51;4.30;;;1.20;;
842;SDS011;407;48.884;9.126;2023-07-29T00:53:17;4.65;;;1.13;;
842;SDS011;407;48.884;9.126;2023-07-29T00:55:42;4.87;;;1.27;;
842;SDS011;407;48.884;9.126;2023-07-29T00:58:09;5.00;;;1.40;;
842;SDS011;407;48.884;9.126;2023-07-29T01:00:35;5.00;;;1.40;;
842;SDS011;407;48.884;9.126;2023-07-29T01:03:01;4.97;;;1.50;;
842;SDS011;407;48.884;9.126;2023-07-29T01:05:29;4.70;;;1.30;;
842;SDS011;407;48.884;9.126;2023-07-29T01:13:27;4.82;;;1.20;;
842;SDS011;407;48.884;9.126;2023-07-29T01:16:04;4.80;;;1.25;;
842;SDS011;407;48.884;9.126;2023-07-29T01:18:40;4.68;;;1.60;;
842;SDS011;407;48.884;9.126;2023-07-29T01:21:08;4.82;;;1.20;;
842;SDS011;407;48.884;9.126;2023-07-29T01:23:36;4.90;;;1.20;;
842;SDS011;407;48.884;9.126;2023-07-29T01:26:02;5.30;;;1.60;;
842;SDS011;407;48.884;9.126;2023-07-29T01:28:28;4.85;;;1.20;;
842;SDS011;407;48.884;9.126;2023-07-29T01:30:57;5.30;;;1.40;;
842;SDS011;407;48.884;9.126;2023-07-29T01:33:30;5.50;;;1.70;;
842;SDS011;407;48.884;9.126;2023-07-29T01:36:02;4.67;;;1.43;;
842;SDS011;407;48.884;9.126;2023-07-29T01:38:33;5.40;;;1.50;;
842;SDS011;407;48.884;9.126;2023-07-29T01:41:01;5.15;;;1.52;;
842;SDS011;407;48.884;9.126;2023-07-29T01:43:31;5.22;;;1.50;;
842;SDS011;407;48.884;9.126;2023-07-29T01:45:57;5.00;;;1.40;;
842;SDS011;407;48.884;9.126;2023-07-29T01:48:22;6.53;;;1.33;;
842;SDS011;407;48.884;9.126;2023-07-29T01:50:48;5.30;;;1.63;;
842;SDS011;407;48.884;9.126;2023-07-29T01:53:14;4.78;;;1.20;;
842;SDS011;407;48.884;9.126;2023-07-29T01:55:40;5.85;;;1.27;;
842;SDS011;407;48.884;9.126;2023-07-29T01:58:06;4.80;;;1.50;;
842;SDS011;407;48.884;9.126;2023-07-29T02:00:32;7.43;;;1.60;;
842;SDS011;407;48.884;9.126;2023-07-29T02:02:57;4.67;;;1.50;;
842;SDS011;407;48.884;9.126;2023-07-29T02:05:23;5.33;;;1.70;;
842;SDS011;407;48.884;9.126;2023-07-29T02:07:48;6.07;;;1.60;;
842;SDS011;407;48.884;9.126;2023-07-29T02:10:14;6.70;;;1.67;;
842;SDS011;407;48.884;9.126;2023-07-29T02:12:39;6.60;;;2.00;;
842;SDS011;407;48.884;9.126;2023-07-29T02:15:05;5.22;;;1.67;;
842;SDS011;407;48.884;9.126;2023-07-29T02:17:31;7.80;;;1.77;;
842;SDS011;407;48.884;9.126;2023-07-29T02:19:56;8.15;;;2.03;;
842;SDS011;407;48.884;9.126;2023-07-29T02:22:23;4.93;;;1.40;;
842;SDS011;407;48.884;9.126;2023-07-29T02:24:49;6.80;;;1.60;;
842;SDS011;407;48.884;9.126;2023-07-29T02:27:14;6.10;;;1.80;;
842;SDS011;407;48.884;9.126;2023-07-29T02:29:40;5.43;;;1.43;;
842;SDS011;407;48.884;9.126;2023-07-29T02:32:06;5.70;;;1.50;;
842;SDS011;407;48.884;9.126;2023-07-29T02:34:31;5.10;;;1.40;;
842;SDS011;407;48.884;9.126;2023-07-29T02:36:57;4.20;;;1.20;;
842;SDS011;407;48.884;9.126;2023-07-29T02:39:23;4.50;;;1.20;;
842;SDS011;407;48.884;9.126;2023-07-29T02:41:49;4.30;;;1.13;;
842;SDS011;407;48.884;9.126;2023-07-29T02:44:15;5.13;;;1.20;;
842;SDS011;407;48.884;9.126;2023-07-29T02:46:40;5.25;;;1.75;;
842;SDS011;407;48.884;9.126;2023-07-29T02:49:06;5.40;;;1.60;;
842;SDS011;407;48.884;9.126;2023-07-29T02:51:31;5.40;;;1.63;;
842;SDS011;407;48.884;9.126;2023-07-29T02:53:57;6.50;;;1.50;;
842;SDS011;407;48.884;9.126;2023-07-29T02:56:23;4.57;;;1.13;;
842;SDS011;407;48.884;9.126;2023-07-29T02:58:48;4.60;;;1.25;;
842;SDS011;407;48.884;9.126;2023-07-29T03:01:16;5.30;;;1.30;;
842;SDS011;407;48.884;9.126;2023-07-29T03:03:42;4.50;;;1.20;;
842;SDS011;407;48.884;9.126;2023-07-29T03:06:08;5.10;;;1.37;;
842;SDS011;407;48.884;9.126;2023-07-29T03:08:35;5.25;;;1.20;;
842;SDS011;407;48.884;9.126;2023-07-29T03:11:05;4.88;;;1.30;;
842;SDS011;407;48.884;9.126;2023-07-29T03:13:32;6.63;;;1.60;;
842;SDS011;407;48.884;9.126;2023-07-29T03:16:10;4.60;;;1.40;;
842;SDS011;407;48.884;9.126;2023-07-29T03:18:39;5.00;;;1.10;;
842;SDS011;407;48.884;9.126;2023-07-29T03:21:06;5.00;;;1.23;;
842;SDS011;407;48.884;9.126;2023-07-29T03:23:32;4.88;;;1.55;;
842;SDS011;407;48.884;9.126;2023-07-29T03:25:58;4.40;;;1.20;;
842;SDS011;407;48.884;9.126;2023-07-29T03:28:25;9.18;;;1.40;;
842;SDS011;407;48.884;9.126;2023-07-29T03:30:55;5.20;;;1.60;;
842;SDS011;407;48.884;9.126;2023-07-29T03:33:21;4.87;;;1.47;;
842;SDS011;407;48.884;9.126;2023-07-29T03:35:47;9.40;;;1.67;;
842;SDS011;407;48.884;9.126;2023-07-29T03:38:12;4.90;;;1.40;;
842;SDS011;407;48.884;9.126;2023-07-29T03:40:38;5.20;;;1.50;;
842;SDS011;407;48.884;9.126;2023-07-29T03:43:04;4.90;;;1.30;;
842;SDS011;407;48.884;9.126;2023-07-29T03:45:30;5.17;;;1.50;;
842;SDS011;407;48.884;9.126;2023-07-29T03:47:56;4.90;;;1.60;;
842;SDS011;407;48.884;9.126;2023-07-29T03:50:21;4.50;;;1.20;;
842;SDS011;407;48.884;9.126;2023-07-29T03:52:47;4.80;;;1.33;;
842;SDS011;407;48.884;9.126;2023-07-29T03:55:13;7.25;;;1.60;;
842;SDS011;407;48.884;9.126;2023-07-29T03:57:38;4.90;;;1.30;;
842;SDS011;407;48.884;9.126;2023-07-29T04:00:04;5.50;;;1.30;;
842;SDS011;407;48.884;9.126;2023-07-29T04:02:30;5.80;;;1.67;;
842;SDS011;407;48.884;9.126;2023-07-29T04:04:56;7.10;;;1.97;;
842;SDS011;407;48.884;9.126;2023-07-29T04:07:23;5.60;;;1.57;;
842;SDS011;407;48.884;9.126;2023-07-29T04:09:48;4.97;;;1.38;;
842;SDS011;407;48.884;9.126;2023-07-29T04:12:14;5.93;;;1.80;;
842;SDS011;407;48.884;9.126;2023-07-29T04:14:40;4.90;;;1.30;;
842;SDS011;407;48.884;9.126;2023-07-29T04:17:06;5.88;;;1.60;;
842;SDS011;407;48.884;9.126;2023-07-29T04:19:32;5.20;;;1.40;;
842;SDS011;407;48.884;9.126;2023-07-29T04:21:58;5.55;;;1.83;;
842;SDS011;407;48.884;9.126;2023-07-29T04:24:23;4.70;;;1.50;;
842;SDS011;407;48.884;9.126;2023-07-29T04:26:49;7.67;;;1.70;;
842;SDS011;407;48.884;9.126;2023-07-29T04:29:14;5.70;;;2.00;;
842;SDS011;407;48.884;9.126;2023-07-29T04:31:40;5.20;;;1.50;;
842;SDS011;407;48.884;9.126;2023-07-29T04:34:05;8.93;;;1.70;;
842;SDS011;407;48.884;9.126;2023-07-29T04:36:31;5.00;;;1.50;;
842;SDS011;407;48.884;9.126;2023-07-29T04:38:56;5.80;;;2.03;;
842;SDS011;407;48.884;9.126;2023-07-29T04:41:22;5.57;;;1.73;;
842;SDS011;407;48.884;9.126;2023-07-29T04:43:47;5.27;;;1.53;;
842;SDS011;407;48.884;9.126;2023-07-29T04:46:14;5.40;;;1.60;;
842;SDS011;407;48.884;9.126;2023-07-29T04:48:40;5.28;;;1.50;;
842;SDS011;407;48.884;9.126;2023-07-29T04:51:05;5.30;;;1.70;;
842;SDS011;407;48.884;9.126;2023-07-29T04:53:31;5.30;;;1.40;;
842;SDS011;407;48.884;9.126;2023-07-29T04:55:56;5.50;;;1.80;;
842;SDS011;407;48.884;9.126;2023-07-29T04:58:22;5.10;;;1.63;;
842;SDS011;407;48.884;9.126;2023-07-29T05:00:47;6.60;;;1.60;;
842;SDS011;407;48.884;9.126;2023-07-29T05:03:13;6.00;;;1.70;;
842;SDS011;407;48.884;9.126;2023-07-29T05:05:38;4.80;;;1.40;;
842;SDS011;407;48.884;9.126;2023-07-29T05:08:04;5.60;;;1.60;;
842;SDS011;407;48.884;9.126;2023-07-29T05:10:30;5.25;;;1.70;;
842;SDS011;407;48.884;9.126;2023-07-29T05:12:55;5.10;;;1.60;;
842;SDS011;407;48.884;9.126;2023-07-29T05:15:20;5.63;;;1.70;;
842;SDS011;407;48.884;9.126;2023-07-29T05:17:49;4.93;;;1.40;;
842;SDS011;407;48.884;9.126;2023-07-29T05:20:14;5.20;;;1.50;;
842;SDS011;407;48.884;9.126;2023-07-29T05:22:40;6.75;;;2.00;;
842;SDS011;407;48.884;9.126;2023-07-29T05:25:05;6.00;;;1.97;;
842;SDS011;407;48.884;9.126;2023-07-29T05:27:32;6.82;;;1.80;;
842;SDS011;407;48.884;9.126;2023-07-29T05:29:57;7.73;;;2.17;;
842;SDS011;407;48.884;9.126;2023-07-29T05:32:23;4.90;;;1.70;;
842;SDS011;407;48.884;9.126;2023-07-29T05:34:48;6.07;;;1.43;;
842;SDS011;407;48.884;9.126;2023-07-29T05:37:14;5.60;;;1.57;;
842;SDS011;407;48.884;9.126;2023-07-29T05:39:39;7.70;;;1.70;;
842;SDS011;407;48.884;9.126;2023-07-29T05:42:05;5.57;;;1.80;;
842;SDS011;407;48.884;9.126;2023-07-29T05:44:31;8.45;;;1.80;;
842;SDS011;407;48.884;9.126;2023-07-29T05:46:57;5.90;;;1.58;;
842;SDS011;407;48.884;9.126;2023-07-29T05:49:22;6.15;;;1.75;;
842;SDS011;407;48.884;9.126;2023-07-29T05:51:48;7.20;;;1.80;;
842;SDS011;407;48.884;9.126;2023-07-29T05:54:15;4.80;;;1.45;;
842;SDS011;407;48.884;9.126;2023-07-29T05:56:42;5.15;;;1.58;;
842;SDS011;407;48.884;9.126;2023-07-29T05:59:08;5.27;;;1.50;;
842;SDS011;407;48.884;9.126;2023-07-29T06:01:33;5.87;;;1.80;;
842;SDS011;407;48.884;9.126;2023-07-29T06:03:59;5.53;;;1.40;;
842;SDS011;407;48.884;9.126;2023-07-29T06:06:25;5.50;;;1.50;;
842;SDS011;407;48.884;9.126;2023-07-29T06:08:51;6.70;;;1.80;;
842;SDS011;407;48.884;9.126;2023-07-29T06:11:16;5.20;;;1.40;;
842;SDS011;407;48.884;9.126;2023-07-29T06:13:42;5.60;;;1.30;;
842;SDS011;407;48.884;9.126;2023-07-29T06:16:07;4.97;;;1.37;;
842;SDS011;407;48.884;9.126;2023-07-29T06:18:33;6.73;;;1.47;;
842;SDS011;407;48.884;9.126;2023-07-29T06:20:58;5.53;;;1.60;;
842;SDS011;407;48.884;9.126;2023-07-29T06:23:24;6.07;;;1.60;;
842;SDS011;407;48.884;9.126;2023-07-29T06:25:49;5.17;;;1.20;;
842;SDS011;407;48.884;9.126;2023-07-29T06:28:16;5.80;;;1.40;;
842;SDS011;407;48.884;9.126;2023-07-29T06:30:41;5.50;;;1.50;;
842;SDS011;407;48.884;9.126;2023-07-29T06:33:07;5.30;;;1.30;;
842;SDS011;407;48.884;9.126;2023-07-29T06:35:32;5.30;;;1.20;;
842;SDS011;407;48.884;9.126;2023-07-29T06:37:58;6.77;;;1.70;;
842;SDS011;407;48.884;9.126;2023-07-29T06:40:23;5.00;;;1.30;;
842;SDS011;407;48.884;9.126;2023-07-29T06:42:49;5.40;;;1.20;;
842;SDS011;407;48.884;9.126;2023-07-29T06:45:14;6.03;;;1.30;;
842;SDS011;407;48.884;9.126;2023-07-29T06:47:41;7.57;;;1.60;;
842;SDS011;407;48.884;9.126;2023-07-29T06:50:07;5.28;;;1.42;;
842;SDS011;407;48.884;9.126;2023-07-29T06:52:34;6.65;;;1.20;;
842;SDS011;407;48.884;9.126;2023-07-29T06:55:01;5.50;;;1.43;;
842;SDS011;407;48.884;9.126;2023-07-29T06:57:27;4.88;;;1.30;;
842;SDS011;407;48.884;9.126;2023-07-29T06:59:52;6.68;;;1.58;;
842;SDS011;407;48.884;9.126;2023-07-29T07:02:18;4.70;;;1.10;;
842;SDS011;407;48.884;9.126;2023-07-29T07:04:43;5.80;;;1.30;;
842;SDS011;407;48.884;9.126;2023-07-29T07:07:09;5.22;;;1.40;;
842;SDS011;407;48.884;9.126;2023-07-29T07:09:34;4.53;;;1.02;;
842;SDS011;407;48.884;9.126;2023-07-29T07:12:00;5.03;;;1.30;;
842;SDS011;407;48.884;9.126;2023-07-29T07:14:26;4.57;;;1.20;;
842;SDS011;407;48.884;9.126;2023-07-29T07:16:51;6.10;;;1.50;;
842;SDS011;407;48.884;9.126;2023-07-29T07:19:17;4.40;;;1.10;;
842;SDS011;407;48.884;9.126;2023-07-29T07:21:42;5.13;;;1.10;;
842;SDS011;407;48.884;9.126;2023-07-29T07:24:08;4.83;;;1.10;;
842;SDS011;407;48.884;9.126;2023-07-29T07:26:33;5.50;;;1.30;;
842;SDS011;407;48.884;9.126;2023-07-29T07:28:59;4.40;;;0.90;;
842;SDS011;407;48.884;9.126;2023-07-29T07:31:25;4.82;;;1.13;;
842;SDS011;407;48.884;9.126;2023-07-29T07:33:50;4.50;;;1.00;;
842;SDS011;407;48.884;9.126;2023-07-29T07:36:16;4.93;;;1.20;;
842;SDS011;407;48.884;9.126;2023-07-29T07:38:41;5.10;;;0.90;;
842;SDS011;407;48.884;9.126;2023-07-29T07:41:07;5.70;;;1.30;;
842;SDS011;407;48.884;9.126;2023-07-29T07:43:32;6.00;;;1.60;;
842;SDS011;407;48.884;9.126;2023-07-29T07:45:59;5.00;;;1.43;;
842;SDS011;407;48.884;9.126;2023-07-29T07:48:25;4.88;;;1.30;;
842;SDS011;407;48.884;9.126;2023-07-29T07:50:51;6.20;;;1.60;;
842;SDS011;407;48.884;9.126;2023-07-29T07:53:17;5.03;;;1.55;;
842;SDS011;407;48.884;9.126;2023-07-29T07:55:42;5.30;;;1.60;;
842;SDS011;407;48.884;9.126;2023-07-29T07:58:08;5.70;;;1.50;;
842;SDS011;407;48.884;9.126;2023-07-29T08:00:33;4.83;;;1.33;;
842;SDS011;407;48.884;9.126;2023-07-29T08:02:59;5.30;;;1.40;;
842;SDS011;407;48.884;9.126;2023-07-29T08:05:24;5.90;;;1.70;;
842;SDS011;407;48.884;9.126;2023-07-29T08:07:50;4.82;;;0.90;;
842;SDS011;407;48.884;9.126;2023-07-29T08:10:16;5.50;;;1.20;;
842;SDS011;407;48.884;9.126;2023-07-29T08:12:41;6.30;;;1.10;;
842;SDS011;407;48.884;9.126;2023-07-29T08:15:07;5.80;;;0.93;;
842;SDS011;407;48.884;9.126;2023-07-29T08:17:32;5.53;;;1.00;;
842;SDS011;407;48.884;9.126;2023-07-29T08:19:58;5.60;;;0.90;;
842;SDS011;407;48.884;9.126;2023-07-29T08:22:23;6.15;;;1.20;;
842;SDS011;407;48.884;9.126;2023-07-29T08:24:49;4.97;;;0.95;;
842;SDS011;407;48.884;9.126;2023-07-29T08:27:14;4.70;;;0.90;;
842;SDS011;407;48.884;9.126;2023-07-29T08:29:40;6.60;;;1.23;;
842;SDS011;407;48.884;9.126;2023-07-29T08:32:07;5.20;;;0.90;;
842;SDS011;407;48.884;9.126;2023-07-29T08:34:33;6.85;;;1.00;;
842;SDS011;407;48.884;9.126;2023-07-29T08:36:58;4.60;;;0.90;;
842;SDS011;407;48.884;9.126;2023-07-29T08:39:25;4.70;;;1.08;;
842;SDS011;407;48.884;9.126;2023-07-29T08:44:39;4.93;;;0.93;;
842;SDS011;407;48.884;9.126;2023-07-29T08:47:12;5.00;;;0.77;;
842;SDS011;407;48.884;9.126;2023-07-29T08:49:38;4.90;;;1.10;;
842;SDS011;407;48.884;9.126;2023-07-29T08:52:05;4.80;;;0.90;;
842;SDS011;407;48.884;9.126;2023-07-29T08:54:32;4.72;;;0.80;;
842;SDS011;407;48.884;9.126;2023-07-29T08:56:58;5.70;;;0.67;;
842;SDS011;407;48.884;9.126;2023-07-29T08:59:24;5.10;;;0.80;;
842;SDS011;407;48.884;9.126;2023-07-29T09:01:52;6.30;;;0.90;;
842;SDS011;407;48.884;9.126;2023-07-29T09:04:21;5.00;;;0.90;;
842;SDS011;407;48.884;9.126;2023-07-29T09:06:48;5.20;;;0.80;;
842;SDS011;407;48.884;9.126;2023-07-29T09:09:15;5.40;;;0.77;;
842;SDS011;407;48.884;9.126;2023-07-29T09:11:41;6.20;;;0.90;;
842;SDS011;407;48.884;9.126;2023-07-29T09:14:07;5.43;;;1.08;;
842;SDS011;407;48.884;9.126;2023-07-29T09:16:32;5.00;;;1.10;;
842;SDS011;407;48.884;9.126;2023-07-29T09:19:02;4.70;;;0.80;;
842;SDS011;407;48.884;9.126;2023-07-29T09:21:32;4.82;;;0.90;;
842;SDS011;407;48.884;9.126;2023-07-29T09:23:57;5.55;;;1.27;;
842;SDS011;407;48.884;9.126;2023-07-29T09:26:29;4.70;;;0.60;;
842;SDS011;407;48.884;9.126;2023-07-29T09:28:56;6.55;;;0.82;;
842;SDS011;407;48.884;9.126;2023-07-29T09:31:23;5.32;;;1.15;;
842;SDS011;407;48.884;9.126;2023-07-29T09:33:55;4.70;;;0.83;;
842;SDS011;407;48.884;9.126;2023-07-29T09:36:29;5.25;;;0.80;;
842;SDS011;407;48.884;9.126;2023-07-29T09:38:56;5.20;;;0.80;;
842;SDS011;407;48.884;9.126;2023-07-29T09:41:28;6.47;;;1.20;;
842;SDS011;407;48.884;9.126;2023-07-29T09:43:58;5.45;;;0.88;;
842;SDS011;407;48.884;9.126;2023-07-29T09:46:25;5.03;;;0.90;;
842;SDS011;407;48.884;9.126;2023-07-29T09:48:56;5.43;;;1.10;;
842;SDS011;407;48.884;9.126;2023-07-29T09:51:22;5.60;;;1.30;;
842;SDS011;407;48.884;9.126;2023-07-29T09:53:49;5.00;;;1.10;;
842;SDS011;407;48.884;9.126;2023-07-29T09:56:16;4.80;;;0.90;;
842;SDS011;407;48.884;9.126;2023-07-29T09:58:45;5.23;;;1.10;;
842;SDS011;407;48.884;9.126;2023-07-29T10:01:10;5.18;;;0.90;;
842;SDS011;407;48.884;9.126;2023-07-29T10:03:36;5.07;;;1.00;;
842;SDS011;407;48.884;9.126;2023-07-29T10:06:02;5.03;;;1.10;;
842;SDS011;407;48.884;9.126;2023-07-29T10:08:31;5.35;;;1.20;;
842;SDS011;407;48.884;9.126;2023-07-29T10:11:00;4.70;;;1.02;;
842;SDS011;407;48.884;9.126;2023-07-29T10:13:26;4.75;;;0.95;;
842;SDS011;407;48.884;9.126;2023-07-29T10:15:55;4.65;;;1.00;;
842;SDS011;407;48.884;9.126;2023-07-29T10:18:22;4.50;;;0.80;;
842;SDS011;407;48.884;9.126;2023-07-29T10:20:51;4.50;;;0.90;;
842;SDS011;407;48.884;9.126;2023-07-29T10:23:18;4.95;;;0.90;;
842;SDS011;407;48.884;9.126;2023-07-29T10:25:50;5.10;;;0.90;;
842;SDS011;407;48.884;9.126;2023-07-29T10:28:30;4.90;;;1.20;;
842;SDS011;407;48.884;9.126;2023-07-29T10:30:58;4.90;;;1.20;;
842;SDS011;407;48.884;9.126;2023-07-29T10:33:24;4.65;;;1.05;;
842;SDS011;407;48.884;9.126;2023-07-29T10:35:50;5.18;;;1.27;;
842;SDS011;407;48.884;9.126;2023-07-29T10:38:17;4.60;;;0.90;;
842;SDS011;407;48.884;9.126;2023-07-29T10:40:45;4.55;;;0.82;;
842;SDS011;407;48.884;9.126;2023-07-29T10:43:25;4.30;;;0.70;;
842;SDS011;407;48.884;9.126;2023-07-29T10:45:57;4.50;;;0.60;;
842;SDS011;407;48.884;9.126;2023-07-29T10:48:52;4.80;;;0.90;;
842;SDS011;407;48.884;9.126;2023-07-29T10:51:22;4.80;;;0.90;;
842;SDS011;407;48.884;9.126;2023-07-29T10:53:57;4.43;;;0.73;;
842;SDS011;407;48.884;9.126;2023-07-29T10:56:40;5.18;;;1.20;;
842;SDS011;407;48.884;9.126;2023-07-29T11:01:41;4.90;;;0.90;;
842;SDS011;407;48.884;9.126;2023-07-29T11:10:15;4.60;;;0.85;;
842;SDS011;407;48.884;9.126;2023-07-29T11:15:03;7.30;;;0.88;;
842;SDS011;407;48.884;9.126;2023-07-29T11:17:35;4.40;;;0.60;;
842;SDS011;407;48.884;9.126;2023-07-29T11:20:05;5.90;;;0.70;;
842;SDS011;407;48.884;9.126;2023-07-29T11:22:35;4.40;;;0.70;;
842;SDS011;407;48.884;9.126;2023-07-29T11:25:01;4.20;;;0.50;;
842;SDS011;407;48.884;9.126;2023-07-29T11:27:27;4.80;;;0.70;;
842;SDS011;407;48.884;9.126;2023-07-29T11:29:57;4.50;;;0.70;;
842;SDS011;407;48.884;9.126;2023-07-29T11:32:23;5.00;;;0.80;;
842;SDS011;407;48.884;9.126;2023-07-29T11:34:50;4.50;;;0.80;;
842;SDS011;407;48.884;9.126;2023-07-29T11:37:16;6.20;;;1.00;;
842;SDS011;407;48.884;9.126;2023-07-29T11:39:42;4.50;;;0.80;;
842;SDS011;407;48.884;9.126;2023-07-29T11:42:12;4.55;;;0.80;;
842;SDS011;407;48.884;9.126;2023-07-29T11:44:38;4.90;;;0.90;;
842;SDS011;407;48.884;9.126;2023-07-29T11:47:07;4.80;;;0.80;;
842;SDS011;407;48.884;9.126;2023-07-29T11:49:33;5.20;;;0.98;;
842;SDS011;407;48.884;9.126;2023-07-29T11:51:59;4.90;;;0.85;;
842;SDS011;407;48.884;9.126;2023-07-29T11:54:25;4.80;;;0.80;;
842;SDS011;407;48.884;9.126;2023-07-29T11:56:51;5.20;;;0.97;;
842;SDS011;407;48.884;9.126;2023-07-29T11:59:17;5.80;;;1.10;;
842;SDS011;407;48.884;9.126;2023-07-29T12:01:42;4.70;;;0.90;;
842;SDS011;407;48.884;9.126;2023-07-29T12:04:09;4.90;;;0.90;;
842;SDS011;407;48.884;9.126;2023-07-29T12:06:35;5.03;;;1.00;;
842;SDS011;407;48.884;9.126;2023-07-29T12:09:02;5.40;;;1.00;;
842;SDS011;407;48.884;9.126;2023-07-29T12:11:28;6.10;;;1.50;;
842;SDS011;407;48.884;9.126;2023-07-29T12:13:53;5.27;;;1.10;;
842;SDS011;407;48.884;9.126;2023-07-29T12:16:19;5.57;;;1.10;;
842;SDS011;407;48.884;9.126;2023-07-29T12:18:45;5.00;;;1.10;;
842;SDS011;407;48.884;9.126;2023-07-29T12:21:10;5.87;;;1.50;;
842;SDS011;407;48.884;9.126;2023-07-29T12:23:38;5.90;;;1.33;;
842;SDS011;407;48.884;9.126;2023-07-29T12:26:04;4.80;;;1.05;;
842;SDS011;407;48.884;9.126;2023-07-29T12:28:29;5.40;;;1.15;;
842;SDS011;407;48.884;9.126;2023-07-29T12:30:55;5.20;;;1.13;;
842;SDS011;407;48.884;9.126;2023-07-29T12:33:31;5.50;;;1.40;;
842;SDS011;407;48.884;9.126;2023-07-29T12:35:58;5.05;;;1.00;;
842;SDS011;407;48.884;9.126;2023-07-29T12:38:27;5.30;;;1.10;;
842;SDS011;407;48.884;9.126;2023-07-29T12:40:56;5.10;;;1.30;;
842;SDS011;407;48.884;9.126;2023-07-29T12:43:21;5.30;;;1.20;;
842;SDS011;407;48.884;9.126;2023-07-29T12:45:50;5.00;;;1.10;;
842;SDS011;407;48.884;9.126;2023-07-29T12:48:16;6.20;;;1.00;;
842;SDS011;407;48.884;9.126;2023-07-29T12:50:42;5.50;;;1.10;;
842;SDS011;407;48.884;9.126;2023-07-29T12:53:08;5.10;;;1.17;;
842;SDS011;407;48.884;9.126;2023-07-29T12:55:37;7.10;;;1.33;;
842;SDS011;407;48.884;9.126;2023-07-29T12:58:03;5.20;;;1.10;;
842;SDS011;407;48.884;9.126;2023-07-29T13:00:28;5.10;;;1.35;;
842;SDS011;407;48.884;9.126;2023-07-29T13:02:54;5.38;;;1.27;;
842;SDS011;407;48.884;9.126;2023-07-29T13:05:20;5.90;;;1.20;;
842;SDS011;407;48.884;9.126;2023-07-29T13:07:46;6.50;;;1.33;;
842;SDS011;407;48.884;9.126;2023-07-29T13:10:12;4.90;;;1.00;;
842;SDS011;407;48.884;9.126;2023-07-29T13:12:38;5.75;;;1.10;;
842;SDS011;407;48.884;9.126;2023-07-29T13:15:04;5.22;;;1.23;;
842;SDS011;407;48.884;9.126;2023-07-29T13:17:30;5.35;;;1.20;;
842;SDS011;407;48.884;9.126;2023-07-29T13:19:56;5.03;;;1.20;;
842;SDS011;407;48.884;9.126;2023-07-29T13:22:21;5.80;;;1.10;;
842;SDS011;407;48.884;9.126;2023-07-29T13:24:47;5.28;;;1.38;;
842;SDS011;407;48.884;9.126;2023-07-29T13:27:12;5.10;;;1.00;;
842;SDS011;407;48.884;9.126;2023-07-29T13:29:39;5.18;;;1.23;;
842;SDS011;407;48.884;9.126;2023-07-29T13:32:05;5.50;;;1.30;;
842;SDS011;407;48.884;9.126;2023-07-29T13:34:31;6.00;;;1.50;;
842;SDS011;407;48.884;9.126;2023-07-29T13:36:57;5.07;;;1.08;;
842;SDS011;407;48.884;9.126;2023-07-29T13:39:22;4.68;;;1.00;;
842;SDS011;407;48.884;9.126;2023-07-29T13:41:48;5.50;;;1.17;;
842;SDS011;407;48.884;9.126;2023-07-29T13:44:13;5.70;;;1.37;;
842;SDS011;407;48.884;9.126;2023-07-29T13:46:39;5.10;;;1.20;;
842;SDS011;407;48.884;9.126;2023-07-29T13:49:04;5.80;;;1.40;;
842;SDS011;407;48.884;9.126;2023-07-29T13:51:30;5.20;;;1.07;;
842;SDS011;407;48.884;9.126;2023-07-29T13:53:55;6.30;;;1.10;;
842;SDS011;407;48.884;9.126;2023-07-29T13:56:21;5.30;;;1.20;;
842;SDS011;407;48.884;9.126;2023-07-29T13:58:48;5.30;;;1.10;;
842;SDS011;407;48.884;9.126;2023-07-29T14:01:13;5.27;;;1.10;;
842;SDS011;407;48.884;9.126;2023-07-29T14:03:39;5.22;;;1.13;;
842;SDS011;407;48.884;9.126;2023-07-29T14:06:04;5.50;;;1.42;;
842;SDS011;407;48.884;9.126;2023-07-29T14:08:30;5.40;;;1.08;;
842;SDS011;407;48.884;9.126;2023-07-29T14:10:56;5.40;;;1.10;;
842;SDS011;407;48.884;9.126;2023-07-29T14:13:21;5.18;;;1.00;;
842;SDS011;407;48.884;9.126;2023-07-29T14:15:47;6.50;;;1.30;;
842;SDS011;407;48.884;9.126;2023-07-29T14:18:12;4.70;;;0.88;;
842;SDS011;407;48.884;9.126;2023-07-29T14:20:38;4.90;;;1.00;;
842;SDS011;407;48.884;9.126;2023-07-29T14:23:03;5.00;;;0.93;;
842;SDS011;407;48.884;9.126;2023-07-29T14:25:29;5.50;;;1.30;;
842;SDS011;407;48.884;9.126;2023-07-29T14:27:55;5.00;;;0.90;;
842;SDS011;407;48.884;9.126;2023-07-29T14:30:21;7.60;;;1.60;;
842;SDS011;407;48.884;9.126;2023-07-29T14:32:46;5.40;;;1.30;;
842;SDS011;407;48.884;9.126;2023-07-29T14:35:13;5.13;;;0.95;;
842;SDS011;407;48.884;9.126;2023-07-29T14:37:38;5.10;;;1.20;;
842;SDS011;407;48.884;9.126;2023-07-29T14:40:04;5.60;;;1.48;;
842;SDS011;407;48.884;9.126;2023-07-29T14:42:30;5.10;;;0.90;;
842;SDS011;407;48.884;9.126;2023-07-29T14:44:56;5.00;;;1.13;;
842;SDS011;407;48.884;9.126;2023-07-29T14:47:24;5.50;;;1.40;;
842;SDS011;407;48.884;9.126;2023-07-29T14:49:49;5.23;;;1.20;;
842;SDS011;407;48.884;9.126;2023-07-29T14:52:15;5.50;;;1.20;;
842;SDS011;407;48.884;9.126;2023-07-29T14:54:41;5.20;;;1.20;;
842;SDS011;407;48.884;9.126;2023-07-29T14:57:07;8.40;;;1.38;;
842;SDS011;407;48.884;9.126;2023-07-29T14:59:33;5.10;;;1.17;;
842;SDS011;407;48.884;9.126;2023-07-29T15:01:58;5.05;;;1.20;;
842;SDS011;407;48.884;9.126;2023-07-29T15:04:24;5.60;;;1.30;;
842;SDS011;407;48.884;9.126;2023-07-29T15:06:49;5.47;;;1.40;;
842;SDS011;407;48.884;9.126;2023-07-29T15:09:15;5.60;;;1.60;;
842;SDS011;407;48.884;9.126;2023-07-29T15:11:40;5.83;;;1.40;;
842;SDS011;407;48.884;9.126;2023-07-29T15:14:06;5.70;;;1.50;;
842;SDS011;407;48.884;9.126;2023-07-29T15:16:31;5.40;;;1.20;;
842;SDS011;407;48.884;9.126;2023-07-29T15:18:58;5.43;;;1.20;;
842;SDS011;407;48.884;9.126;2023-07-29T15:21:24;5.40;;;1.33;;
842;SDS011;407;48.884;9.126;2023-07-29T15:23:50;5.10;;;1.00;;
842;SDS011;407;48.884;9.126;2023-07-29T15:26:15;5.23;;;1.20;;
842;SDS011;407;48.884;9.126;2023-07-29T15:28:41;5.20;;;1.17;;
842;SDS011;407;48.884;9.126;2023-07-29T15:31:06;7.30;;;1.60;;
842;SDS011;407;48.884;9.126;2023-07-29T15:33:32;5.33;;;1.20;;
842;SDS011;407;48.884;9.126;2023-07-29T15:35:59;5.15;;;1.23;;
842;SDS011;407;48.884;9.126;2023-07-29T15:38:25;5.50;;;1.55;;
842;SDS011;407;48.884;9.126;2023-07-29T15:40:50;6.15;;;1.60;;
842;SDS011;407;48.884;9.126;2023-07-29T15:43:16;5.50;;;1.50;;
842;SDS011;407;48.884;9.126;2023-07-29T15:45:43;7.35;;;2.20;;
842;SDS011;407;48.884;9.126;2023-07-29T15:48:09;5.35;;;1.40;;
842;SDS011;407;48.884;9.126;2023-07-29T15:50:35;6.38;;;1.20;;
842;SDS011;407;48.884;9.126;2023-07-29T15:53:00;5.13;;;1.48;;
842;SDS011;407;48.884;9.126;2023-07-29T15:55:28;6.22;;;1.23;;
842;SDS011;407;48.884;9.126;2023-07-29T15:57:53;6.60;;;1.60;;
842;SDS011;407;48.884;9.126;2023-07-29T16:00:19;5.20;;;1.30;;